sensor_id;sensor_type;location;lat;lon;timestamp;temperature;humidity
44447;DHT22;30152;52.066;5.358;2023-01-09T07:47:35;6.40;99.90
44447;DHT22;30152;52.066;5.358;2023-01-09T07:50:01;7.50;99.90
44447;DHT22;30152;52.066;5.358;2023-01-09T07:57:18;6.70;99.90
44447;DHT22;30152;52.066;5.358;2023-01-09T08:02:10;6.60;99.90
44447;DHT22;30152;52.066;5.358;2023-01-09T08:04:36;6.70;99.90
44447;DHT22;30152;52.066;5.358;2023-01-09T08:07:02;6.70;99.90
44447;DHT22;30152;52.066;5.358;2023-01-09T08:09:28;6.70;99.90
44447;DHT22;30152;52.066;5.358;2023-01-09T08:11:53;6.60;99.90
44447;DHT22;30152;52.066;5.358;2023-01-09T08:14:21;6.70;99.90
44447;DHT22;30152;52.066;5.358;2023-01-09T08:19:13;6.60;99.90
44447;DHT22;30152;52.066;5.358;2023-01-09T08:24:05;6.70;99.90
44447;DHT22;30152;52.066;5.358;2023-01-09T08:26:30;6.60;99.90
44447;DHT22;30152;52.066;5.358;2023-01-09T08:28:56;7.80;99.90
44447;DHT22;30152;52.066;5.358;2023-01-09T08:31:21;6.80;99.90
44447;DHT22;30152;52.066;5.358;2023-01-09T08:36:13;6.80;99.90
44447;DHT22;30152;52.066;5.358;2023-01-09T08:38:38;6.90;99.90
44447;DHT22;30152;52.066;5.358;2023-01-09T08:41:04;6.90;99.90
44447;DHT22;30152;52.066;5.358;2023-01-09T08:43:50;7.00;99.90
44447;DHT22;30152;52.066;5.358;2023-01-09T08:46:35;6.90;99.90
44447;DHT22;30152;52.066;5.358;2023-01-09T08:49:20;7.00;99.90
44447;DHT22;30152;52.066;5.358;2023-01-09T08:51:45;6.90;99.90
44447;DHT22;30152;52.066;5.358;2023-01-09T08:56:37;7.00;99.90
44447;DHT22;30152;52.066;5.358;2023-01-09T09:01:28;7.20;99.90
44447;DHT22;30152;52.066;5.358;2023-01-09T09:03:54;6.90;99.90
44447;DHT22;30152;52.066;5.358;2023-01-09T09:06:19;7.20;99.90
44447;DHT22;30152;52.066;5.358;2023-01-09T09:08:45;7.20;99.90
44447;DHT22;30152;52.066;5.358;2023-01-09T09:11:10;7.30;99.90
44447;DHT22;30152;52.066;5.358;2023-01-09T09:16:02;7.10;99.90
44447;DHT22;30152;52.066;5.358;2023-01-09T09:18:27;7.30;99.90
44447;DHT22;30152;52.066;5.358;2023-01-09T09:20:53;7.20;99.90
44447;DHT22;30152;52.066;5.358;2023-01-09T09:23:18;7.20;99.90
44447;DHT22;30152;52.066;5.358;2023-01-09T09:25:45;7.10;99.90
44447;DHT22;30152;52.066;5.358;2023-01-09T09:28:10;7.10;99.90
44447;DHT22;30152;52.066;5.358;2023-01-09T09:30:37;6.60;99.90
44447;DHT22;30152;52.066;5.358;2023-01-09T09:33:03;7.30;99.90
44447;DHT22;30152;52.066;5.358;2023-01-09T09:37:58;7.20;99.90
44447;DHT22;30152;52.066;5.358;2023-01-09T09:46:22;7.30;99.90
44447;DHT22;30152;52.066;5.358;2023-01-09T09:48:55;7.30;99.90
44447;DHT22;30152;52.066;5.358;2023-01-09T09:54:13;7.60;99.90
44447;DHT22;30152;52.066;5.358;2023-01-09T09:59:16;7.70;99.90
44447;DHT22;30152;52.066;5.358;2023-01-09T10:04:19;7.60;99.90
44447;DHT22;30152;52.066;5.358;2023-01-09T10:06:55;8.50;99.90
44447;DHT22;30152;52.066;5.358;2023-01-09T10:09:53;8.00;99.90
44447;DHT22;30152;52.066;5.358;2023-01-09T10:12:44;8.00;99.90
44447;DHT22;30152;52.066;5.358;2023-01-09T10:16:05;8.10;99.90
44447;DHT22;30152;52.066;5.358;2023-01-09T10:18:52;8.00;99.90
44447;DHT22;30152;52.066;5.358;2023-01-09T10:27:15;8.10;99.90
44447;DHT22;30152;52.066;5.358;2023-01-09T10:29:51;8.10;99.90
44447;DHT22;30152;52.066;5.358;2023-01-09T10:32:44;8.20;99.90
44447;DHT22;30152;52.066;5.358;2023-01-09T10:35:40;7.90;99.90
44447;DHT22;30152;52.066;5.358;2023-01-09T10:38:07;8.00;99.90
44447;DHT22;30152;52.066;5.358;2023-01-09T10:40:39;7.90;99.90
44447;DHT22;30152;52.066;5.358;2023-01-09T10:45:53;7.70;99.90
44447;DHT22;30152;52.066;5.358;2023-01-09T10:48:30;9.20;99.90
44447;DHT22;30152;52.066;5.358;2023-01-09T10:50:56;8.10;99.90
44447;DHT22;30152;52.066;5.358;2023-01-09T10:53:33;7.90;99.90
44447;DHT22;30152;52.066;5.358;2023-01-09T10:56:06;7.70;99.90
44447;DHT22;30152;52.066;5.358;2023-01-09T10:58:32;7.60;99.90
44447;DHT22;30152;52.066;5.358;2023-01-09T11:00:58;7.90;99.90
44447;DHT22;30152;52.066;5.358;2023-01-09T11:03:27;8.00;99.90
44447;DHT22;30152;52.066;5.358;2023-01-09T11:05:57;7.70;99.90
44447;DHT22;30152;52.066;5.358;2023-01-09T11:08:44;7.20;99.90
44447;DHT22;30152;52.066;5.358;2023-01-09T11:11:09;8.20;99.90
44447;DHT22;30152;52.066;5.358;2023-01-09T11:13:36;8.40;99.90
44447;DHT22;30152;52.066;5.358;2023-01-09T11:18:37;8.00;99.90
44447;DHT22;30152;52.066;5.358;2023-01-09T11:26:52;8.20;99.90
44447;DHT22;30152;52.066;5.358;2023-01-09T11:29:20;8.00;99.90
44447;DHT22;30152;52.066;5.358;2023-01-09T11:31:57;7.90;99.90
44447;DHT22;30152;52.066;5.358;2023-01-09T11:34:25;8.10;99.90
44447;DHT22;30152;52.066;5.358;2023-01-09T11:36:52;8.20;99.90
44447;DHT22;30152;52.066;5.358;2023-01-09T11:39:24;8.90;99.90
44447;DHT22;30152;52.066;5.358;2023-01-09T11:41:55;8.00;99.90
44447;DHT22;30152;52.066;5.358;2023-01-09T11:44:22;8.10;99.90
44447;DHT22;30152;52.066;5.358;2023-01-09T11:46:48;8.40;99.90
44447;DHT22;30152;52.066;5.358;2023-01-09T11:51:39;8.60;99.90
44447;DHT22;30152;52.066;5.358;2023-01-09T12:49:01;9.50;99.90
44447;DHT22;30152;52.066;5.358;2023-01-09T12:51:32;9.70;99.90
44447;DHT22;30152;52.066;5.358;2023-01-09T12:57:03;9.70;99.90
44447;DHT22;30152;52.066;5.358;2023-01-09T12:59:38;9.60;99.90
44447;DHT22;30152;52.066;5.358;2023-01-09T13:02:13;9.00;99.90
44447;DHT22;30152;52.066;5.358;2023-01-09T13:04:46;8.80;99.90
44447;DHT22;30152;52.066;5.358;2023-01-09T13:07:19;8.90;99.90
44447;DHT22;30152;52.066;5.358;2023-01-09T13:10:01;8.70;99.90
44447;DHT22;30152;52.066;5.358;2023-01-09T13:12:32;8.60;99.90
44447;DHT22;30152;52.066;5.358;2023-01-09T13:17:37;8.60;99.90
44447;DHT22;30152;52.066;5.358;2023-01-09T13:20:26;8.50;99.90
44447;DHT22;30152;52.066;5.358;2023-01-09T13:22:53;8.50;99.90
44447;DHT22;30152;52.066;5.358;2023-01-09T13:25:38;9.20;99.90
44447;DHT22;30152;52.066;5.358;2023-01-09T13:28:22;8.50;99.90
44447;DHT22;30152;52.066;5.358;2023-01-09T13:30:58;9.60;99.90
44447;DHT22;30152;52.066;5.358;2023-01-09T13:33:33;8.30;99.90
44447;DHT22;30152;52.066;5.358;2023-01-09T13:36:00;8.50;99.90
44447;DHT22;30152;52.066;5.358;2023-01-09T13:38:29;8.60;99.90
44447;DHT22;30152;52.066;5.358;2023-01-09T13:41:16;8.50;99.90
44447;DHT22;30152;52.066;5.358;2023-01-09T13:44:21;8.90;99.90
44447;DHT22;30152;52.066;5.358;2023-01-09T13:46:55;8.90;99.90
44447;DHT22;30152;52.066;5.358;2023-01-09T13:57:33;9.20;99.90
44447;DHT22;30152;52.066;5.358;2023-01-09T14:05:13;9.10;99.90
44447;DHT22;30152;52.066;5.358;2023-01-09T14:10:29;9.40;99.90
44447;DHT22;30152;52.066;5.358;2023-01-09T14:12:57;9.40;99.90
44447;DHT22;30152;52.066;5.358;2023-01-09T14:15:35;9.40;99.90
44447;DHT22;30152;52.066;5.358;2023-01-09T14:20:53;9.20;99.90
44447;DHT22;30152;52.066;5.358;2023-01-09T14:23:24;8.60;99.90
44447;DHT22;30152;52.066;5.358;2023-01-09T14:25:51;9.00;99.90
44447;DHT22;30152;52.066;5.358;2023-01-09T14:28:37;10.00;99.90
44447;DHT22;30152;52.066;5.358;2023-01-09T14:31:08;8.90;99.90
44447;DHT22;30152;52.066;5.358;2023-01-09T14:36:15;8.80;99.90
44447;DHT22;30152;52.066;5.358;2023-01-09T14:38:51;8.50;99.90
44447;DHT22;30152;52.066;5.358;2023-01-09T14:41:28;8.60;99.90
44447;DHT22;30152;52.066;5.358;2023-01-09T14:49:57;9.90;99.90
44447;DHT22;30152;52.066;5.358;2023-01-09T14:52:35;8.90;99.90
44447;DHT22;30152;52.066;5.358;2023-01-09T14:55:11;8.90;99.90
44447;DHT22;30152;52.066;5.358;2023-01-09T14:57:39;8.80;99.90
44447;DHT22;30152;52.066;5.358;2023-01-09T15:02:39;8.70;99.90
44447;DHT22;30152;52.066;5.358;2023-01-09T15:05:11;8.70;99.90
44447;DHT22;30152;52.066;5.358;2023-01-09T15:07:47;8.70;99.90
44447;DHT22;30152;52.066;5.358;2023-01-09T15:10:31;8.50;99.90
44447;DHT22;30152;52.066;5.358;2023-01-09T15:13:03;8.50;99.90
44447;DHT22;30152;52.066;5.358;2023-01-09T15:15:29;8.30;99.90
44447;DHT22;30152;52.066;5.358;2023-01-09T15:18:06;8.30;99.90
44447;DHT22;30152;52.066;5.358;2023-01-09T15:20:33;7.90;99.90
44447;DHT22;30152;52.066;5.358;2023-01-09T15:22:59;8.10;99.90
44447;DHT22;30152;52.066;5.358;2023-01-09T15:25:31;8.10;99.90
44447;DHT22;30152;52.066;5.358;2023-01-09T15:27:59;8.00;99.90
44447;DHT22;30152;52.066;5.358;2023-01-09T15:30:32;7.90;99.90
44447;DHT22;30152;52.066;5.358;2023-01-09T15:33:04;8.00;99.90
44447;DHT22;30152;52.066;5.358;2023-01-09T15:35:35;7.70;99.90
44447;DHT22;30152;52.066;5.358;2023-01-09T15:38:04;7.80;99.90
44447;DHT22;30152;52.066;5.358;2023-01-09T15:40:32;7.70;99.90
44447;DHT22;30152;52.066;5.358;2023-01-09T15:42:59;7.80;99.90
44447;DHT22;30152;52.066;5.358;2023-01-09T15:45:44;7.80;99.90
44447;DHT22;30152;52.066;5.358;2023-01-09T15:50:44;7.60;99.90
44447;DHT22;30152;52.066;5.358;2023-01-09T15:53:14;7.40;99.90
44447;DHT22;30152;52.066;5.358;2023-01-09T15:55:40;7.10;99.90
44447;DHT22;30152;52.066;5.358;2023-01-09T15:58:33;7.40;99.90
44447;DHT22;30152;52.066;5.358;2023-01-09T16:01:36;7.60;99.90
44447;DHT22;30152;52.066;5.358;2023-01-09T16:06:30;7.20;99.90
44447;DHT22;30152;52.066;5.358;2023-01-09T16:08:58;7.00;99.90
44447;DHT22;30152;52.066;5.358;2023-01-09T16:11:32;6.70;99.90
44447;DHT22;30152;52.066;5.358;2023-01-09T16:14:12;7.10;99.90
44447;DHT22;30152;52.066;5.358;2023-01-09T16:19:26;6.90;99.90
44447;DHT22;30152;52.066;5.358;2023-01-09T16:21:59;7.10;99.90
44447;DHT22;30152;52.066;5.358;2023-01-09T16:24:38;6.90;99.90
44447;DHT22;30152;52.066;5.358;2023-01-09T16:27:32;6.50;99.90
44447;DHT22;30152;52.066;5.358;2023-01-09T16:30:00;6.60;99.90
44447;DHT22;30152;52.066;5.358;2023-01-09T16:32:32;6.50;99.90
44447;DHT22;30152;52.066;5.358;2023-01-09T16:35:05;6.60;99.90
44447;DHT22;30152;52.066;5.358;2023-01-09T16:37:32;6.30;99.90
44447;DHT22;30152;52.066;5.358;2023-01-09T16:42:29;6.40;99.90
44447;DHT22;30152;52.066;5.358;2023-01-09T16:45:13;6.40;99.90
44447;DHT22;30152;52.066;5.358;2023-01-09T16:47:39;6.30;99.90
44447;DHT22;30152;52.066;5.358;2023-01-09T16:50:04;6.60;99.90
44447;DHT22;30152;52.066;5.358;2023-01-09T16:52:30;6.70;99.90
44447;DHT22;30152;52.066;5.358;2023-01-09T16:54:55;6.30;99.90
44447;DHT22;30152;52.066;5.358;2023-01-09T17:02:16;6.80;99.90
44447;DHT22;30152;52.066;5.358;2023-01-09T17:07:14;6.90;99.90
44447;DHT22;30152;52.066;5.358;2023-01-09T17:09:41;7.00;99.90
44447;DHT22;30152;52.066;5.358;2023-01-09T17:12:20;7.10;99.90
44447;DHT22;30152;52.066;5.358;2023-01-09T17:14:47;7.00;99.90
44447;DHT22;30152;52.066;5.358;2023-01-09T17:17:13;6.90;99.90
44447;DHT22;30152;52.066;5.358;2023-01-09T17:19:39;7.10;99.90
44447;DHT22;30152;52.066;5.358;2023-01-09T17:24:31;6.90;99.90
44447;DHT22;30152;52.066;5.358;2023-01-09T17:27:25;7.10;99.90
44447;DHT22;30152;52.066;5.358;2023-01-09T17:30:11;6.80;99.90
44447;DHT22;30152;52.066;5.358;2023-01-09T17:32:37;7.00;99.90
44447;DHT22;30152;52.066;5.358;2023-01-09T17:35:03;6.60;99.90
44447;DHT22;30152;52.066;5.358;2023-01-09T17:37:29;6.70;99.90
44447;DHT22;30152;52.066;5.358;2023-01-09T17:47:20;6.60;99.90
44447;DHT22;30152;52.066;5.358;2023-01-09T17:49:46;6.60;99.90
44447;DHT22;30152;52.066;5.358;2023-01-09T17:57:03;6.60;99.90
44447;DHT22;30152;52.066;5.358;2023-01-09T18:01:56;6.40;99.90
44447;DHT22;30152;52.066;5.358;2023-01-09T18:04:21;6.50;99.90
44447;DHT22;30152;52.066;5.358;2023-01-09T18:09:15;6.50;99.90
44447;DHT22;30152;52.066;5.358;2023-01-09T18:11:42;6.60;99.90
44447;DHT22;30152;52.066;5.358;2023-01-09T18:14:09;6.40;99.90
44447;DHT22;30152;52.066;5.358;2023-01-09T18:21:28;6.40;99.90
44447;DHT22;30152;52.066;5.358;2023-01-09T18:23:55;6.40;99.90
44447;DHT22;30152;52.066;5.358;2023-01-09T18:26:21;6.40;99.90
44447;DHT22;30152;52.066;5.358;2023-01-09T18:28:57;6.50;99.90
44447;DHT22;30152;52.066;5.358;2023-01-09T18:31:24;6.50;99.90
44447;DHT22;30152;52.066;5.358;2023-01-09T18:33:53;6.50;99.90
44447;DHT22;30152;52.066;5.358;2023-01-09T18:36:21;6.70;99.90
44447;DHT22;30152;52.066;5.358;2023-01-09T18:38:51;6.50;99.90
44447;DHT22;30152;52.066;5.358;2023-01-09T18:41:18;6.50;99.90
44447;DHT22;30152;52.066;5.358;2023-01-09T18:43:50;6.10;99.90
44447;DHT22;30152;52.066;5.358;2023-01-09T18:46:16;6.70;99.90
44447;DHT22;30152;52.066;5.358;2023-01-09T18:48:56;6.50;99.90
44447;DHT22;30152;52.066;5.358;2023-01-09T18:51:22;6.50;99.90
44447;DHT22;30152;52.066;5.358;2023-01-09T18:53:49;6.50;99.90
44447;DHT22;30152;52.066;5.358;2023-01-09T18:56:15;6.40;99.90
44447;DHT22;30152;52.066;5.358;2023-01-09T18:58:41;7.00;99.90
44447;DHT22;30152;52.066;5.358;2023-01-09T19:03:32;6.70;99.90
44447;DHT22;30152;52.066;5.358;2023-01-09T19:05:59;6.80;99.90
44447;DHT22;30152;52.066;5.358;2023-01-09T19:08:28;6.80;99.90
44447;DHT22;30152;52.066;5.358;2023-01-09T19:18:12;7.00;99.90
44447;DHT22;30152;52.066;5.358;2023-01-09T19:20:40;7.00;99.90
44447;DHT22;30152;52.066;5.358;2023-01-09T19:27:57;6.80;99.90
44447;DHT22;30152;52.066;5.358;2023-01-09T19:30:24;6.90;99.90
44447;DHT22;30152;52.066;5.358;2023-01-09T19:32:50;7.40;99.90
44447;DHT22;30152;52.066;5.358;2023-01-09T19:35:16;6.50;99.90
44447;DHT22;30152;52.066;5.358;2023-01-09T19:37:42;6.70;99.90
44447;DHT22;30152;52.066;5.358;2023-01-09T19:40:09;6.70;99.90
44447;DHT22;30152;52.066;5.358;2023-01-09T19:42:35;6.60;99.90
44447;DHT22;30152;52.066;5.358;2023-01-09T19:45:00;6.70;99.90
44447;DHT22;30152;52.066;5.358;2023-01-09T19:49:52;6.50;99.90
44447;DHT22;30152;52.066;5.358;2023-01-09T19:52:19;6.50;99.90
44447;DHT22;30152;52.066;5.358;2023-01-09T19:54:45;6.70;99.90
44447;DHT22;30152;52.066;5.358;2023-01-09T19:57:12;6.40;99.90
44447;DHT22;30152;52.066;5.358;2023-01-09T19:59:37;6.30;99.90
44447;DHT22;30152;52.066;5.358;2023-01-09T20:11:51;6.60;99.90
44447;DHT22;30152;52.066;5.358;2023-01-09T20:14:18;6.50;99.90
44447;DHT22;30152;52.066;5.358;2023-01-09T20:16:44;6.70;99.90
44447;DHT22;30152;52.066;5.358;2023-01-09T20:19:13;6.60;99.90
44447;DHT22;30152;52.066;5.358;2023-01-09T20:21:40;6.60;99.90
44447;DHT22;30152;52.066;5.358;2023-01-09T20:24:06;6.60;99.90
44447;DHT22;30152;52.066;5.358;2023-01-09T20:26:34;6.40;99.90
44447;DHT22;30152;52.066;5.358;2023-01-09T20:28:59;6.30;99.90
44447;DHT22;30152;52.066;5.358;2023-01-09T20:31:27;6.30;99.90
44447;DHT22;30152;52.066;5.358;2023-01-09T20:33:55;6.50;99.90
44447;DHT22;30152;52.066;5.358;2023-01-09T20:38:53;5.60;99.90
44447;DHT22;30152;52.066;5.358;2023-01-09T20:41:20;6.30;99.90
44447;DHT22;30152;52.066;5.358;2023-01-09T20:43:54;6.30;99.90
44447;DHT22;30152;52.066;5.358;2023-01-09T20:46:22;6.40;99.90
44447;DHT22;30152;52.066;5.358;2023-01-09T20:51:14;7.70;99.90
44447;DHT22;30152;52.066;5.358;2023-01-09T20:53:44;6.20;99.90
44447;DHT22;30152;52.066;5.358;2023-01-09T20:56:09;6.30;99.90
44447;DHT22;30152;52.066;5.358;2023-01-09T20:58:35;6.10;99.90
44447;DHT22;30152;52.066;5.358;2023-01-09T21:01:09;6.30;99.90
44447;DHT22;30152;52.066;5.358;2023-01-09T21:06:11;6.30;99.90
44447;DHT22;30152;52.066;5.358;2023-01-09T21:11:03;6.20;99.90
44447;DHT22;30152;52.066;5.358;2023-01-09T21:16:07;6.10;99.90
44447;DHT22;30152;52.066;5.358;2023-01-09T21:21:07;6.30;99.90
44447;DHT22;30152;52.066;5.358;2023-01-09T21:28:26;6.60;99.90
44447;DHT22;30152;52.066;5.358;2023-01-09T21:35:57;6.60;99.90
44447;DHT22;30152;52.066;5.358;2023-01-09T21:38:24;7.10;99.90
44447;DHT22;30152;52.066;5.358;2023-01-09T21:40:50;6.40;99.90
44447;DHT22;30152;52.066;5.358;2023-01-09T21:43:27;6.50;99.90
44447;DHT22;30152;52.066;5.358;2023-01-09T21:46:16;7.20;99.90
44447;DHT22;30152;52.066;5.358;2023-01-09T21:49:05;6.20;99.90
44447;DHT22;30152;52.066;5.358;2023-01-09T21:51:32;6.40;99.90
44447;DHT22;30152;52.066;5.358;2023-01-09T21:54:00;6.80;99.90
44447;DHT22;30152;52.066;5.358;2023-01-09T21:58:52;6.20;99.90
44447;DHT22;30152;52.066;5.358;2023-01-09T22:08:35;6.20;99.90
44447;DHT22;30152;52.066;5.358;2023-01-09T22:11:01;6.60;99.90
44447;DHT22;30152;52.066;5.358;2023-01-09T22:13:27;6.40;99.90
44447;DHT22;30152;52.066;5.358;2023-01-09T22:15:53;6.50;99.90
44447;DHT22;30152;52.066;5.358;2023-01-09T22:18:20;6.40;99.90
